createdAt,value
2022-12-17T00:02:37.853Z,46.58
2022-12-17T00:05:23.787Z,50.28
2022-12-17T00:08:15.379Z,44.20
2022-12-17T00:11:00.432Z,44.55
2022-12-17T00:13:46.933Z,49.70
2022-12-17T00:16:32.251Z,44.47
2022-12-17T00:19:17.415Z,46.85
2022-12-17T00:22:02.477Z,41.83
2022-12-17T00:24:47.734Z,48.75
2022-12-17T00:27:32.968Z,47.38
2022-12-17T00:30:19.438Z,42.72
2022-12-17T00:33:04.858Z,39.92
2022-12-17T00:35:50.050Z,48.50
2022-12-17T00:38:36.065Z,41.33
2022-12-17T00:41:21.743Z,41.63
2022-12-17T00:44:06.874Z,42.70
2022-12-17T00:46:53.239Z,43.33
2022-12-17T00:49:38.472Z,41.85
2022-12-17T00:52:23.575Z,44.03
2022-12-17T00:55:08.724Z,44.25
2022-12-17T00:57:53.760Z,42.55
2022-12-17T01:00:39.101Z,38.58
2022-12-17T01:03:28.687Z,37.85
2022-12-17T01:06:13.954Z,39.33
2022-12-17T01:08:59.180Z,40.00
2022-12-17T01:11:44.739Z,36.17
2022-12-17T01:14:30.210Z,35.35
2022-12-17T01:17:15.540Z,34.45
2022-12-17T01:20:02.149Z,37.10
2022-12-17T01:22:47.393Z,36.00
2022-12-17T01:25:32.654Z,36.60
2022-12-17T01:28:17.949Z,34.42
2022-12-17T01:31:03.085Z,36.65
2022-12-17T01:33:50.581Z,36.90
2022-12-17T01:36:38.993Z,37.60
2022-12-17T01:39:24.125Z,37.08
2022-12-17T01:42:09.331Z,34.40
2022-12-17T01:45:05.167Z,38.28
2022-12-17T01:47:53.803Z,33.47
2022-12-17T01:50:43.042Z,31.75
2022-12-17T01:53:30.570Z,32.97
2022-12-17T01:56:17.291Z,31.50
2022-12-17T01:59:02.901Z,30.45
2022-12-17T02:01:48.262Z,28.92
2022-12-17T02:04:33.458Z,26.48
2022-12-17T02:07:35.723Z,25.80
2022-12-17T02:10:32.248Z,25.67
2022-12-17T02:13:29.179Z,23.75
2022-12-17T02:16:20.126Z,24.83
2022-12-17T02:19:09.767Z,23.30
2022-12-17T02:21:57.946Z,22.83
2022-12-17T02:24:49.651Z,21.95
2022-12-17T02:27:37.955Z,24.77
2022-12-17T02:30:26.238Z,23.63
2022-12-17T02:33:12.834Z,20.88
2022-12-17T02:36:03.874Z,22.65
2022-12-17T02:38:51.323Z,22.58
2022-12-17T02:41:42.434Z,24.38
2022-12-17T02:44:31.568Z,22.42
2022-12-17T02:47:21.372Z,20.45
2022-12-17T02:50:07.168Z,21.75
2022-12-17T02:52:58.844Z,23.50
2022-12-17T02:55:45.775Z,20.30
2022-12-17T02:58:31.930Z,25.33
2022-12-17T03:01:20.720Z,21.85
2022-12-17T03:04:05.921Z,24.00
2022-12-17T03:06:51.387Z,21.05
2022-12-17T03:09:36.515Z,23.55
2022-12-17T03:12:22.502Z,20.80
2022-12-17T03:15:07.735Z,22.00
2022-12-17T03:17:54.138Z,25.30
2022-12-17T03:20:39.612Z,22.05
2022-12-17T03:23:27.361Z,24.92
2022-12-17T03:26:13.200Z,20.45
2022-12-17T03:28:58.531Z,19.65
2022-12-17T03:31:43.892Z,21.52
2022-12-17T03:34:30.207Z,22.70
2022-12-17T03:37:15.315Z,20.10
2022-12-17T03:40:00.759Z,23.05
2022-12-17T03:42:45.880Z,26.08
2022-12-17T03:45:30.887Z,23.35
2022-12-17T03:48:23.783Z,22.38
2022-12-17T03:51:11.085Z,25.05
2022-12-17T03:53:57.526Z,23.25
2022-12-17T03:56:42.885Z,22.77
2022-12-17T03:59:28.561Z,23.15
2022-12-17T04:02:14.295Z,23.65
2022-12-17T04:04:59.936Z,23.55
2022-12-17T04:07:46.630Z,24.48
2022-12-17T04:10:31.832Z,26.50
2022-12-17T04:13:22.494Z,21.33
2022-12-17T04:16:07.904Z,22.33
2022-12-17T04:18:53.001Z,22.75
2022-12-17T04:21:39.172Z,20.48
2022-12-17T04:24:25.905Z,20.48
2022-12-17T04:27:11.134Z,20.60
2022-12-17T04:29:56.386Z,23.15
2022-12-17T04:32:41.653Z,21.45
2022-12-17T04:35:41.639Z,21.13
2022-12-17T04:38:27.069Z,21.25
2022-12-17T04:41:13.568Z,19.13
2022-12-17T04:44:02.987Z,22.15
2022-12-17T04:46:49.170Z,21.05
2022-12-17T04:49:34.869Z,20.92
2022-12-17T04:52:20.469Z,21.20
2022-12-17T04:55:05.613Z,17.13
2022-12-17T04:57:52.283Z,22.23
2022-12-17T05:00:52.109Z,22.50
2022-12-17T05:03:37.505Z,21.98
2022-12-17T05:06:23.371Z,20.30
2022-12-17T05:09:08.365Z,17.25
2022-12-17T05:11:53.915Z,22.13
2022-12-17T05:14:40.344Z,18.88
2022-12-17T05:17:24.637Z,19.15
2022-12-17T05:20:09.706Z,18.60
2022-12-17T05:22:54.979Z,19.65
2022-12-17T05:25:40.539Z,19.08
2022-12-17T05:28:25.574Z,20.77
2022-12-17T05:31:13.667Z,17.33
2022-12-17T05:34:10.966Z,17.38
2022-12-17T05:36:56.343Z,16.77
2022-12-17T05:39:41.546Z,16.90
2022-12-17T05:42:26.525Z,15.73
2022-12-17T05:45:11.964Z,17.58
2022-12-17T05:47:58.426Z,22.67
2022-12-17T05:50:43.532Z,19.20
2022-12-17T05:53:28.686Z,18.00
2022-12-17T05:56:13.944Z,17.00
2022-12-17T05:58:59.331Z,16.80
2022-12-17T06:01:44.752Z,18.17
2022-12-17T06:04:31.275Z,16.55
2022-12-17T06:07:16.722Z,16.17
2022-12-17T06:10:01.704Z,16.77
2022-12-17T06:12:47.162Z,15.98
2022-12-17T06:15:32.484Z,17.88
2022-12-17T06:18:17.706Z,16.65
2022-12-17T06:21:04.828Z,19.08
2022-12-17T06:23:50.035Z,17.73
2022-12-17T06:26:35.606Z,16.77
2022-12-17T06:29:20.963Z,17.83
2022-12-17T06:32:06.152Z,20.50
2022-12-17T06:34:51.446Z,18.55
2022-12-17T06:37:37.756Z,19.90
2022-12-17T06:40:24.218Z,19.73
2022-12-17T06:43:12.647Z,17.00
2022-12-17T06:45:57.822Z,18.02
2022-12-17T06:48:43.015Z,17.33
2022-12-17T06:51:28.027Z,18.52
2022-12-17T06:54:14.766Z,16.73
2022-12-17T06:57:00.118Z,16.58
2022-12-17T06:59:45.446Z,17.73
2022-12-17T07:02:30.700Z,19.15
2022-12-17T07:05:15.771Z,18.77
2022-12-17T07:08:01.137Z,18.73
2022-12-17T07:10:47.790Z,17.73
2022-12-17T07:13:32.957Z,17.60
2022-12-17T07:16:18.249Z,17.30
2022-12-17T07:19:03.335Z,18.42
2022-12-17T07:21:48.851Z,18.40
2022-12-17T07:24:34.245Z,15.52
2022-12-17T07:27:20.839Z,16.27
2022-12-17T07:30:05.987Z,15.60
2022-12-17T07:32:51.284Z,18.83
2022-12-17T07:35:37.589Z,16.33
2022-12-17T07:38:23.331Z,16.70
2022-12-17T07:41:08.777Z,14.07
2022-12-17T07:43:55.559Z,17.15
2022-12-17T07:46:40.603Z,16.25
2022-12-17T07:49:26.465Z,16.25
2022-12-17T07:52:12.331Z,17.15
2022-12-17T07:54:57.588Z,14.55
2022-12-17T07:57:43.453Z,14.50
2022-12-17T08:00:31.791Z,17.45
2022-12-17T08:03:17.755Z,16.08
2022-12-17T08:06:03.073Z,16.23
2022-12-17T08:08:48.629Z,16.65
2022-12-17T08:11:33.715Z,15.07
2022-12-17T08:14:18.794Z,16.42
2022-12-17T08:17:05.601Z,13.82
2022-12-17T08:19:50.728Z,17.73
2022-12-17T08:22:35.733Z,16.77
2022-12-17T08:25:20.931Z,17.90
2022-12-17T08:28:11.099Z,15.68
2022-12-17T08:31:01.001Z,17.10
2022-12-17T08:33:47.486Z,16.52
2022-12-17T08:36:32.606Z,18.33
2022-12-17T08:39:17.911Z,17.23
2022-12-17T08:42:04.652Z,20.05
2022-12-17T08:44:50.027Z,17.33
2022-12-17T08:47:35.097Z,18.45
2022-12-17T08:50:22.872Z,16.33
2022-12-17T08:53:08.303Z,17.08
2022-12-17T08:55:53.594Z,17.42
2022-12-17T08:58:39.589Z,16.20
2022-12-17T09:01:24.975Z,15.90
2022-12-17T09:04:10.281Z,17.65
2022-12-17T09:06:57.035Z,17.48
2022-12-17T09:09:42.341Z,15.75
2022-12-17T09:12:27.534Z,17.40
2022-12-17T09:15:12.692Z,15.65
2022-12-17T09:17:57.767Z,18.10
2022-12-17T09:20:43.168Z,17.60
2022-12-17T09:23:34.104Z,18.40
2022-12-17T09:26:19.696Z,17.25
2022-12-17T09:29:16.559Z,17.80
2022-12-17T09:32:02.051Z,17.63
2022-12-17T09:34:47.104Z,18.13
2022-12-17T09:37:32.165Z,18.90
2022-12-17T09:40:18.751Z,16.70
2022-12-17T09:43:15.504Z,16.75
2022-12-17T09:46:09.068Z,16.63
2022-12-17T09:49:00.807Z,18.17
2022-12-17T09:51:48.104Z,19.20
2022-12-17T09:54:40.388Z,18.67
2022-12-17T09:57:35.144Z,16.88
2022-12-17T10:00:25.260Z,16.30
2022-12-17T10:03:10.420Z,16.58
2022-12-17T10:05:55.497Z,14.60
2022-12-17T10:08:41.068Z,15.15
2022-12-17T10:11:36.959Z,14.20
2022-12-17T10:14:35.961Z,13.52
2022-12-17T10:17:21.844Z,13.25
2022-12-17T10:20:11.345Z,13.82
2022-12-17T10:23:04.925Z,13.60
2022-12-17T10:25:50.521Z,15.82
2022-12-17T10:28:38.660Z,14.00
2022-12-17T10:31:29.141Z,13.75
2022-12-17T10:34:15.725Z,14.93
2022-12-17T10:37:04.718Z,15.48
2022-12-17T10:39:49.270Z,15.75
2022-12-17T10:42:44.455Z,17.45
2022-12-17T10:45:43.734Z,14.43
2022-12-17T10:48:42.228Z,15.30
2022-12-17T10:51:38.159Z,14.95
2022-12-17T10:54:41.616Z,16.67
2022-12-17T10:57:45.087Z,14.60
2022-12-17T11:00:47.352Z,13.37
2022-12-17T11:03:50.601Z,15.13
2022-12-17T11:06:42.699Z,14.87
2022-12-17T11:09:34.907Z,16.40
2022-12-17T11:12:27.197Z,17.37
2022-12-17T11:15:19.891Z,14.70
2022-12-17T11:18:11.362Z,15.10
2022-12-17T11:21:06.296Z,16.70
2022-12-17T11:23:54.859Z,16.27
2022-12-17T11:26:43.527Z,16.20
2022-12-17T11:29:31.786Z,17.27
2022-12-17T11:32:40.334Z,15.90
2022-12-17T11:35:32.422Z,15.73
2022-12-17T11:38:27.466Z,17.10
2022-12-17T11:41:17.535Z,16.03
2022-12-17T11:44:11.682Z,16.93
2022-12-17T11:47:04.038Z,17.30
2022-12-17T11:49:58.390Z,19.47
2022-12-17T11:52:54.012Z,17.20
2022-12-17T11:55:48.149Z,17.67
2022-12-17T11:58:41.102Z,17.10
2022-12-17T12:01:36.504Z,20.07
2022-12-17T12:04:32.323Z,18.47
2022-12-17T12:07:26.559Z,18.58
2022-12-17T12:10:16.189Z,19.33
2022-12-17T12:13:19.081Z,21.30
2022-12-17T12:16:15.730Z,20.15
2022-12-17T12:19:09.067Z,18.75
2022-12-17T12:21:58.200Z,18.77
2022-12-17T12:24:58.953Z,18.92
2022-12-17T12:27:53.574Z,22.02
2022-12-17T12:30:42.058Z,19.63
2022-12-17T12:33:57.430Z,19.88
2022-12-17T12:36:44.958Z,18.77
2022-12-17T12:39:35.125Z,19.93
2022-12-17T12:42:26.715Z,19.47
2022-12-17T12:45:21.237Z,21.33
2022-12-17T12:48:14.424Z,22.43
2022-12-17T12:51:07.224Z,21.27
2022-12-17T12:53:52.401Z,21.50
2022-12-17T12:56:46.745Z,21.70
2022-12-17T12:59:43.616Z,18.97
2022-12-17T13:02:42.357Z,19.73
2022-12-17T13:05:34.134Z,19.70
2022-12-17T13:08:21.254Z,19.50
2022-12-17T13:10:50.676Z,20.77
2022-12-17T13:13:30.657Z,21.08
2022-12-17T13:16:03.271Z,18.40
2022-12-17T13:18:35.812Z,19.70
2022-12-17T13:21:24.147Z,18.80
2022-12-17T13:23:51.899Z,16.25
2022-12-17T13:26:23.253Z,17.95
2022-12-17T13:29:01.738Z,19.05
2022-12-17T13:31:40.425Z,18.77
2022-12-17T13:34:16.402Z,19.52
2022-12-17T13:36:54.271Z,18.25
2022-12-17T13:39:40.652Z,18.55
2022-12-17T13:42:19.107Z,16.30
2022-12-17T13:44:47.733Z,18.70
2022-12-17T13:47:22.647Z,19.60
2022-12-17T13:50:31.541Z,18.77
2022-12-17T13:52:43.695Z,19.08
2022-12-17T13:55:21.051Z,18.77
2022-12-17T13:57:50.687Z,19.55
2022-12-17T14:00:26.480Z,19.10
2022-12-17T14:02:55.256Z,19.25
2022-12-17T14:05:27.494Z,18.67
2022-12-17T14:07:59.565Z,20.77
2022-12-17T14:10:27.365Z,19.58
2022-12-17T14:13:04.056Z,19.08
2022-12-17T14:15:32.048Z,19.25
2022-12-17T14:18:00.692Z,19.05
2022-12-17T14:20:31.252Z,20.92
2022-12-17T14:23:04.225Z,18.42
2022-12-17T14:25:36.219Z,20.85
2022-12-17T14:28:06.167Z,21.10
2022-12-17T14:30:46.172Z,22.92
2022-12-17T14:33:28.789Z,19.67
2022-12-17T14:36:02.000Z,20.73
2022-12-17T14:38:38.509Z,19.58
2022-12-17T14:41:26.609Z,18.13
2022-12-17T14:43:59.639Z,19.77
2022-12-17T14:46:28.618Z,21.98
2022-12-17T14:49:03.534Z,22.00
2022-12-17T14:51:34.155Z,25.40
2022-12-17T14:54:19.467Z,23.50
2022-12-17T14:56:48.745Z,25.10
2022-12-17T14:59:31.642Z,25.23
2022-12-17T15:02:03.530Z,24.48
2022-12-17T15:04:32.998Z,25.52
2022-12-17T15:07:00.863Z,28.45
2022-12-17T15:09:29.802Z,26.60
2022-12-17T15:11:57.402Z,25.90
2022-12-17T15:14:25.112Z,26.88
2022-12-17T15:16:52.971Z,26.38
2022-12-17T15:19:21.553Z,28.27
2022-12-17T15:21:49.294Z,27.27
2022-12-17T15:24:20.330Z,24.90
2022-12-17T15:26:50.060Z,25.48
2022-12-17T15:29:17.817Z,25.70
2022-12-17T15:31:45.545Z,25.75
2022-12-17T15:34:13.364Z,29.02
2022-12-17T15:36:41.200Z,27.20
2022-12-17T15:39:09.383Z,25.90
2022-12-17T15:41:54.659Z,27.15
2022-12-17T15:44:23.635Z,27.95
2022-12-17T15:46:51.401Z,25.58
2022-12-17T15:49:19.030Z,26.58
2022-12-17T15:51:46.695Z,24.75
2022-12-17T15:54:14.294Z,28.08
2022-12-17T15:56:41.967Z,27.42
2022-12-17T15:59:09.710Z,27.20
2022-12-17T16:01:38.827Z,26.80
2022-12-17T16:04:11.997Z,26.55
2022-12-17T16:06:43.615Z,25.38
2022-12-17T16:09:11.257Z,24.42
2022-12-17T16:11:38.918Z,25.70
2022-12-17T16:14:06.752Z,26.00
2022-12-17T16:16:34.428Z,25.13
2022-12-17T16:19:03.571Z,25.13
2022-12-17T16:21:31.246Z,26.45
2022-12-17T16:23:58.863Z,24.27
2022-12-17T16:26:27.345Z,27.15
2022-12-17T16:28:54.940Z,25.70
2022-12-17T16:31:22.791Z,27.60
2022-12-17T16:33:50.568Z,26.98
2022-12-17T16:36:21.862Z,26.08
2022-12-17T16:38:52.027Z,27.60
2022-12-17T16:41:20.500Z,25.75
2022-12-17T16:43:49.365Z,27.60
2022-12-17T16:46:28.830Z,26.55
2022-12-17T16:48:57.940Z,29.67
2022-12-17T16:51:29.589Z,30.83
2022-12-17T16:53:57.927Z,34.28
2022-12-17T16:56:27.419Z,31.38
2022-12-17T16:58:55.364Z,33.50
2022-12-17T17:01:26.075Z,34.13
2022-12-17T17:03:53.854Z,35.13
2022-12-17T17:06:22.385Z,34.78
2022-12-17T17:08:51.763Z,35.38
2022-12-17T17:11:21.398Z,35.67
2022-12-17T17:13:50.419Z,35.90
2022-12-17T17:16:19.896Z,36.55
2022-12-17T17:18:48.012Z,35.60
2022-12-17T17:21:23.551Z,36.47
2022-12-17T17:23:54.429Z,46.75
2022-12-17T17:26:25.613Z,41.75
2022-12-17T17:28:53.270Z,39.75
2022-12-17T17:31:21.810Z,42.30
2022-12-17T17:33:51.310Z,43.47
2022-12-17T17:36:20.881Z,38.20
2022-12-17T17:38:50.000Z,35.30
2022-12-17T17:41:21.161Z,36.30
2022-12-17T17:43:53.143Z,31.98
2022-12-17T17:46:20.839Z,30.42
2022-12-17T17:48:52.703Z,30.33
2022-12-17T17:51:59.763Z,27.05
2022-12-17T17:54:14.678Z,26.83
2022-12-17T17:56:44.270Z,26.95
2022-12-17T17:59:14.004Z,30.45
2022-12-17T18:01:43.931Z,29.77
2022-12-17T18:04:13.762Z,27.73
2022-12-17T18:07:02.737Z,27.13
2022-12-17T18:09:31.774Z,22.85
2022-12-17T18:12:20.936Z,25.42
2022-12-17T18:15:12.685Z,23.50
2022-12-17T18:17:37.457Z,20.88
2022-12-17T18:20:06.084Z,21.30
2022-12-17T18:22:33.744Z,24.30
2022-12-17T18:25:01.627Z,26.08
2022-12-17T18:27:30.606Z,24.40
2022-12-17T18:29:58.233Z,22.85
2022-12-17T18:32:25.897Z,20.27
2022-12-17T18:34:53.647Z,22.10
2022-12-17T18:37:21.364Z,19.55
2022-12-17T18:39:49.817Z,18.60
2022-12-17T18:42:35.724Z,18.45
2022-12-17T18:45:05.177Z,19.60
2022-12-17T18:47:32.911Z,20.13
2022-12-17T18:50:00.569Z,19.15
2022-12-17T18:52:28.276Z,17.88
2022-12-17T18:54:55.974Z,18.60
2022-12-17T18:57:23.630Z,20.05
2022-12-17T18:59:51.328Z,18.15
2022-12-17T19:02:20.387Z,18.85
2022-12-17T19:04:48.091Z,17.25
2022-12-17T19:07:15.738Z,17.38
2022-12-17T19:09:43.682Z,19.02
2022-12-17T19:12:11.523Z,15.73
2022-12-17T19:14:39.196Z,18.17
2022-12-17T19:17:06.861Z,18.00
2022-12-17T19:19:35.799Z,13.85
2022-12-17T19:22:03.473Z,15.82
2022-12-17T19:24:31.058Z,17.00
2022-12-17T19:26:58.681Z,16.80
2022-12-17T19:29:26.736Z,18.17
2022-12-17T19:31:54.435Z,17.88
2022-12-17T19:34:22.274Z,17.42
2022-12-17T19:36:51.382Z,15.82
2022-12-17T19:39:20.665Z,14.93
2022-12-17T19:41:49.959Z,15.68
2022-12-17T19:44:20.004Z,13.50
2022-12-17T19:46:47.969Z,14.80
2022-12-17T19:49:16.707Z,14.82
2022-12-17T19:51:44.947Z,15.38
2022-12-17T19:54:15.057Z,14.18
2022-12-17T19:56:44.338Z,15.10
2022-12-17T19:59:13.167Z,14.68
2022-12-17T20:01:42.568Z,14.20
2022-12-17T20:04:12.596Z,14.15
2022-12-17T20:06:40.323Z,15.63
2022-12-17T20:09:08.718Z,15.75
2022-12-17T20:11:40.031Z,15.07
2022-12-17T20:14:09.494Z,14.35
2022-12-17T20:16:39.215Z,14.38
2022-12-17T20:19:09.300Z,13.43
2022-12-17T20:21:37.464Z,12.73
2022-12-17T20:24:05.663Z,14.88
2022-12-17T20:26:33.689Z,14.80
2022-12-17T20:29:02.638Z,16.05
2022-12-17T20:31:32.002Z,14.32
2022-12-17T20:34:03.448Z,15.10
2022-12-17T20:36:31.900Z,16.25
2022-12-17T20:39:00.411Z,15.43
2022-12-17T20:41:30.433Z,15.48
2022-12-17T20:43:58.920Z,15.32
2022-12-17T20:46:28.023Z,13.98
2022-12-17T20:48:55.791Z,13.77
2022-12-17T20:51:25.251Z,13.90
2022-12-17T20:53:54.365Z,15.48
2022-12-17T20:56:25.195Z,14.13
2022-12-17T20:58:54.243Z,15.30
2022-12-17T21:01:23.986Z,14.90
2022-12-17T21:03:54.652Z,13.15
2022-12-17T21:06:24.887Z,11.80
2022-12-17T21:08:54.770Z,13.32
2022-12-17T21:11:24.080Z,14.35
2022-12-17T21:13:52.507Z,13.32
2022-12-17T21:16:22.667Z,13.82
2022-12-17T21:18:50.663Z,12.15
2022-12-17T21:21:21.356Z,13.27
2022-12-17T21:23:49.476Z,13.65
2022-12-17T21:26:19.295Z,11.52
2022-12-17T21:28:48.520Z,12.18
2022-12-17T21:31:18.198Z,12.02
2022-12-17T21:33:47.103Z,12.68
2022-12-17T21:36:16.184Z,11.88
2022-12-17T21:38:45.350Z,11.48
2022-12-17T21:41:16.133Z,10.93
2022-12-17T21:43:44.210Z,10.05
2022-12-17T21:46:12.976Z,10.45
2022-12-17T21:48:42.991Z,9.55
2022-12-17T21:51:12.910Z,10.13
2022-12-17T21:53:43.416Z,9.02
2022-12-17T21:56:14.931Z,9.25
2022-12-17T21:58:44.432Z,9.80
2022-12-17T22:01:18.865Z,9.38
2022-12-17T22:03:54.033Z,8.38
2022-12-17T22:06:25.227Z,8.93
2022-12-17T22:09:01.499Z,9.00
2022-12-17T22:11:37.436Z,9.57
2022-12-17T22:14:08.505Z,9.45
2022-12-17T22:16:41.926Z,9.85
2022-12-17T22:19:11.228Z,9.73
2022-12-17T22:21:40.999Z,8.05
2022-12-17T22:24:12.510Z,10.15
2022-12-17T22:26:41.538Z,9.35
2022-12-17T22:29:09.567Z,10.30
2022-12-17T22:31:54.909Z,9.10
2022-12-17T22:36:16.239Z,9.73
2022-12-17T22:40:14.483Z,10.27
2022-12-17T22:42:39.026Z,10.10
2022-12-17T22:44:41.007Z,8.82
2022-12-17T22:45:52.813Z,10.30
2022-12-17T22:48:22.598Z,10.00
2022-12-17T22:51:07.645Z,9.55
2022-12-17T22:53:37.002Z,9.18
2022-12-17T22:56:18.591Z,9.38
2022-12-17T22:58:56.885Z,8.95
2022-12-17T23:01:24.978Z,9.45
2022-12-17T23:03:55.308Z,9.05
2022-12-17T23:06:23.221Z,9.75
2022-12-17T23:08:51.208Z,10.65
2022-12-17T23:11:20.734Z,10.60
2022-12-17T23:13:48.457Z,13.73
2022-12-17T23:16:17.793Z,13.13
2022-12-17T23:18:47.178Z,11.75
2022-12-17T23:21:21.044Z,9.88
2022-12-17T23:23:48.931Z,11.02
2022-12-17T23:26:18.992Z,9.68
2022-12-17T23:28:46.957Z,9.73
2022-12-17T23:31:19.360Z,9.55
2022-12-17T23:33:47.862Z,9.52
2022-12-17T23:36:18.106Z,9.32
2022-12-17T23:38:46.259Z,8.18
2022-12-17T23:41:15.709Z,7.88
2022-12-17T23:43:43.538Z,7.70
2022-12-17T23:46:12.066Z,8.82
2022-12-17T23:48:45.531Z,7.65
2022-12-17T23:51:15.095Z,7.28
2022-12-17T23:53:43.700Z,6.72
2022-12-17T23:56:14.378Z,7.25
2022-12-17T23:58:43.810Z,6.95
